Time;durP1;ratioP1;P1;durP2;ratioP2;P2;SDS_P1;SDS_P2;PMS_P1;PMS_P2;Temp;Humidity;BMP_temperature;BMP_pressure;BME280_temperature;BME280_humidity;BME280_pressure;Samples;Min_cycle;Max_cycle;Signal;HPM_P1;HPM_P2
2023/01/27 00:02:05;;;;;;;33.42;16.45;;;;;;;2.23;100.00;100145.81;4939916;29;20050;-85
2023/01/27 00:04:31;;;;;;;33.15;16.73;;;;;;;2.12;100.00;100137.97;4956012;29;20028;-86
2023/01/27 00:06:56;;;;;;;34.72;16.80;;;;;;;2.25;100.00;100138.69;4956327;29;20035;-85
2023/01/27 00:13:27;;;;;;;37.40;15.90;;;;;;;2.39;100.00;100133.22;4954204;29;20051;-85
2023/01/27 00:15:52;;;;;;;36.03;16.67;;;;;;;2.63;100.00;100127.00;4955627;29;20043;-85
2023/01/27 00:18:18;;;;;;;34.58;18.20;;;;;;;2.54;100.00;100129.41;4955768;29;20091;-86
2023/01/27 00:26:16;;;;;;;36.05;17.88;;;;;;;2.89;100.00;100137.06;4960204;29;20048;-86
2023/01/27 00:28:44;;;;;;;43.38;18.33;;;;;;;2.94;100.00;100129.69;4958896;29;20112;-84
2023/01/27 00:34:00;;;;;;;27.77;14.20;;;;;;;3.31;100.00;100135.41;4957302;29;20047;-85
2023/01/27 00:36:28;;;;;;;36.78;16.98;;;;;;;3.24;100.00;100129.00;4957560;29;20100;-84
2023/01/27 00:42:44;;;;;;;39.10;16.58;;;;;;;3.16;100.00;100136.63;4956013;29;20071;-89
2023/01/27 00:47:54;;;;;;;34.15;14.98;;;;;;;2.89;100.00;100131.81;4958465;29;20028;-84
2023/01/27 00:50:20;;;;;;;31.88;14.90;;;;;;;3.00;100.00;100126.56;4938950;29;20031;-86
2023/01/27 00:52:46;;;;;;;33.17;14.05;;;;;;;3.00;100.00;100128.34;4955320;29;20038;-89
2023/01/27 00:55:14;;;;;;;35.58;16.50;;;;;;;2.97;100.00;100131.22;4939119;29;20051;-84
2023/01/27 00:57:41;;;;;;;35.30;16.23;;;;;;;2.95;100.00;100126.09;4955060;29;20043;-83
2023/01/27 01:00:44;;;;;;;26.90;13.30;;;;;;;3.33;100.00;100123.00;4937568;29;20473;-84
2023/01/27 01:03:10;;;;;;;29.80;14.50;;;;;;;3.39;100.00;100132.13;4949880;29;20028;-86
2023/01/27 01:05:36;;;;;;;30.13;15.05;;;;;;;3.48;100.00;100128.78;4935687;29;20050;-86
2023/01/27 01:08:21;;;;;;;32.53;15.00;;;;;;;3.52;100.00;100146.72;4953141;29;20035;-86
2023/01/27 01:10:47;;;;;;;29.60;14.38;;;;;;;3.14;100.00;100133.31;4938007;29;20075;-87
2023/01/27 01:13:12;;;;;;;33.70;15.27;;;;;;;3.12;100.00;100135.22;4954224;29;20032;-84
2023/01/27 01:15:39;;;;;;;33.75;15.13;;;;;;;3.11;100.00;100138.81;4955370;29;20401;-87
2023/01/27 01:18:06;;;;;;;27.60;14.38;;;;;;;3.26;100.00;100128.84;4958427;29;20028;-84
2023/01/27 01:20:37;;;;;;;31.50;16.05;;;;;;;3.12;100.00;100137.81;4943743;29;20035;-86
2023/01/27 01:23:03;;;;;;;36.53;17.60;;;;;;;2.61;100.00;100135.00;4960355;29;20051;-83
2023/01/27 01:25:29;;;;;;;33.58;16.15;;;;;;;2.83;100.00;100131.47;4942925;29;20050;-85
2023/01/27 01:27:55;;;;;;;32.63;15.90;;;;;;;2.91;100.00;100143.03;4958527;29;20042;-88
2023/01/27 01:30:20;;;;;;;32.38;15.95;;;;;;;3.03;100.00;100146.44;4954201;29;20430;-85
2023/01/27 01:32:46;;;;;;;36.60;16.85;;;;;;;3.07;100.00;100143.44;4937312;29;20044;-86
2023/01/27 01:35:12;;;;;;;37.00;18.13;;;;;;;2.78;100.00;100147.56;4957635;29;20036;-85
2023/01/27 01:37:39;;;;;;;42.70;17.85;;;;;;;2.95;100.00;100143.63;4954859;29;20099;-85
2023/01/27 01:40:05;;;;;;;35.75;18.13;;;;;;;3.08;100.00;100145.09;4956267;29;20034;-86
2023/01/27 01:42:53;;;;;;;36.08;17.90;;;;;;;3.35;100.00;100142.03;4940734;29;20036;-86
2023/01/27 01:45:47;;;;;;;38.15;18.27;;;;;;;3.51;100.00;100141.63;4957114;29;20043;-85
2023/01/27 01:48:29;;;;;;;37.63;17.98;;;;;;;3.16;100.00;100131.38;4949266;29;20113;-86
2023/01/27 01:51:00;;;;;;;39.00;18.48;;;;;;;3.14;100.00;100133.31;4924767;29;20397;-84
2023/01/27 01:53:35;;;;;;;38.72;16.80;;;;;;;2.60;100.00;100128.09;4957910;29;20063;-88
2023/01/27 01:56:09;;;;;;;40.53;18.13;;;;;;;2.69;100.00;100126.50;4958425;29;20059;-90
2023/01/27 01:58:35;;;;;;;38.13;18.55;;;;;;;2.85;100.00;100126.97;4911919;29;20158;-87
2023/01/27 02:01:04;;;;;;;36.13;17.88;;;;;;;2.95;100.00;100128.72;4958260;29;20027;-84
2023/01/27 02:03:33;;;;;;;36.10;17.75;;;;;;;3.01;100.00;100127.41;4941731;29;20047;-86
2023/01/27 02:05:59;;;;;;;34.95;18.13;;;;;;;3.00;100.00;100130.97;4958450;29;20039;-85
2023/01/27 02:08:33;;;;;;;41.67;17.92;;;;;;;2.99;100.00;100134.53;4957229;29;20043;-87
2023/01/27 02:10:59;;;;;;;37.55;17.70;;;;;;;3.18;100.00;100129.50;4941799;29;20075;-87
2023/01/27 02:13:25;;;;;;;41.65;18.75;;;;;;;3.01;100.00;100130.03;4958430;29;20031;-87
2023/01/27 02:15:52;;;;;;;37.70;19.05;;;;;;;3.20;100.00;100138.03;4956811;29;20024;-89
2023/01/27 02:18:18;;;;;;;39.17;19.58;;;;;;;2.74;100.00;100129.59;4942281;29;20047;-87
2023/01/27 02:20:50;;;;;;;42.88;19.02;;;;;;;2.63;100.00;100127.84;4943307;29;20035;-86
2023/01/27 02:23:44;;;;;;;40.38;19.10;;;;;;;2.46;100.00;100129.16;4942693;29;20050;-83
2023/01/27 02:26:19;;;;;;;42.70;19.65;;;;;;;2.20;100.00;100125.13;4959047;29;20038;-86
2023/01/27 02:28:50;;;;;;;44.83;21.00;;;;;;;1.98;100.00;100119.91;4941514;29;20036;-87
2023/01/27 02:31:16;;;;;;;46.00;19.75;;;;;;;2.16;100.00;100123.69;4941097;29;20035;-87
2023/01/27 02:33:42;;;;;;;42.97;20.80;;;;;;;2.25;100.00;100122.19;4958829;29;20023;-87
2023/01/27 02:36:16;;;;;;;44.10;19.88;;;;;;;2.42;100.00;100135.56;4958631;29;20044;-85
2023/01/27 02:38:52;;;;;;;39.75;19.55;;;;;;;2.67;100.00;100123.19;4958251;29;20040;-86
2023/01/27 02:41:18;;;;;;;47.50;20.67;;;;;;;2.54;100.00;100134.63;4926114;29;20497;-89
2023/01/27 02:43:44;;;;;;;41.42;19.23;;;;;;;2.21;100.00;100132.03;4940886;29;20035;-83
2023/01/27 02:46:09;;;;;;;40.40;19.08;;;;;;;2.56;100.00;100130.09;4940005;29;20030;-84
2023/01/27 02:48:35;;;;;;;45.80;20.17;;;;;;;2.80;100.00;100129.13;4941217;29;20046;-83
2023/01/27 02:51:00;;;;;;;40.72;20.15;;;;;;;2.69;100.00;100131.75;4941228;29;20011;-86
2023/01/27 02:53:29;;;;;;;38.88;18.23;;;;;;;2.41;100.00;100131.31;4939064;29;20075;-85
2023/01/27 02:55:54;;;;;;;41.55;18.90;;;;;;;2.64;100.00;100124.28;4940559;29;20037;-81
2023/01/27 02:58:20;;;;;;;34.47;18.33;;;;;;;2.63;100.00;100132.22;4941251;29;20035;-84
2023/01/27 03:00:50;;;;;;;41.33;18.80;;;;;;;2.51;100.00;100134.88;4939528;29;20036;-82
2023/01/27 03:03:15;;;;;;;41.35;18.83;;;;;;;2.47;100.00;100123.00;4939116;29;20027;-84
2023/01/27 03:09:16;;;;;;;40.28;18.73;;;;;;;2.27;100.00;100121.09;5278919;23;20043;-85
2023/01/27 03:26:05;;;;;;;39.05;18.73;;;;;;;2.63;100.00;100130.44;4961976;29;20072;-84
2023/01/27 03:29:58;;;;;;;40.47;19.50;;;;;;;2.78;100.00;100129.25;4929065;29;20130;-85
2023/01/27 03:58:44;;;;;;;39.85;18.98;;;;;;;2.62;100.00;100117.50;4718708;23;20063;-86
2023/01/27 04:13:16;;;;;;;45.78;19.80;;;;;;;2.18;100.00;100119.19;4951307;29;20115;-84
2023/01/27 04:16:56;;;;;;;49.70;21.02;;;;;;;1.80;100.00;100110.84;4960795;29;20034;-83
2023/01/27 04:23:23;;;;;;;54.08;20.73;;;;;;;1.89;100.00;100116.19;3993323;26;20055;-84
2023/01/27 04:26:37;;;;;;;42.60;20.80;;;;;;;1.69;100.00;100118.69;4943444;29;20108;-83
2023/01/27 04:43:25;;;;;;;50.00;21.92;;;;;;;1.33;100.00;100110.00;4516468;26;20054;-83
2023/01/27 04:46:49;;;;;;;47.90;23.33;;;;;;;1.30;100.00;100104.19;4896098;29;20079;-84
2023/01/27 04:50:04;;;;;;;46.58;21.17;;;;;;;1.26;100.00;100102.78;4865119;29;20028;-81
2023/01/27 04:55:53;;;;;;;45.30;20.95;;;;;;;1.48;100.00;100097.59;5099586;23;20118;-83
2023/01/27 05:03:03;;;;;;;40.78;18.92;;;;;;;1.76;100.00;100104.19;4884691;29;20048;-82
2023/01/27 05:09:40;;;;;;;40.53;18.25;;;;;;;1.66;100.00;100109.25;4884681;29;19908;-81
2023/01/27 05:12:55;;;;;;;42.33;16.90;;;;;;;1.67;100.00;100110.09;4883602;29;20049;-82
2023/01/27 05:16:27;;;;;;;33.05;16.33;;;;;;;1.86;100.00;100108.59;4905832;29;20054;-82
2023/01/27 05:23:38;;;;;;;36.08;16.23;;;;;;;2.32;100.00;100118.13;4883456;29;20066;-81
2023/01/27 05:32:59;;;;;;;41.83;16.00;;;;;;;2.51;100.00;100140.13;4957928;29;20090;-84
2023/01/27 05:36:06;;;;;;;33.22;15.68;;;;;;;2.58;100.00;100143.91;4846003;29;20063;-86
2023/01/27 05:40:00;;;;;;;34.72;16.38;;;;;;;2.55;100.00;100157.22;4827950;29;20039;-85
2023/01/27 05:43:38;;;;;;;44.42;16.73;;;;;;;2.40;100.00;100153.19;4828627;29;20046;-85
2023/01/27 06:11:21;;;;;;;40.88;18.85;;;;;;;2.63;100.00;100168.84;4920405;29;20063;-83
2023/01/27 06:15:31;;;;;;;35.05;16.67;;;;;;;2.75;100.00;100175.75;4810144;29;20175;-86
2023/01/27 06:21:16;;;;;;;35.20;16.48;;;;;;;2.91;100.00;100179.66;5235330;23;20110;-85
2023/01/27 06:24:36;;;;;;;38.15;16.35;;;;;;;3.00;100.00;100176.31;4957259;29;20031;-86
2023/01/27 06:46:52;;;;;;;32.67;16.15;;;;;;;3.01;100.00;100195.47;5104220;23;20046;-80
2023/01/27 08:40:53;;;;;;;27.38;11.07;;;;;;;3.89;100.00;100282.59;5401336;23;19914;-84
2023/01/27 10:14:34;;;;;;;22.52;10.13;;;;;;;4.61;100.00;100335.97;4978530;23;20055;-84
2023/01/27 10:18:08;;;;;;;18.95;8.80;;;;;;;4.62;100.00;100320.13;5039089;23;20074;-83
2023/01/27 10:25:43;;;;;;;19.73;9.27;;;;;;;4.72;100.00;100324.59;4905072;29;20056;-82
2023/01/27 10:34:33;;;;;;;18.13;7.40;;;;;;;4.72;100.00;100319.34;5969748;23;20374;-80
2023/01/27 10:38:04;;;;;;;20.98;9.63;;;;;;;4.90;100.00;100321.25;4928462;29;20091;-84
2023/01/27 10:41:30;;;;;;;23.15;9.85;;;;;;;4.97;100.00;100308.44;4917001;29;20039;-85
2023/01/27 10:52:54;;;;;;;20.75;9.35;;;;;;;5.20;100.00;100300.19;4900551;29;20140;-85
2023/01/27 11:02:09;;;;;;;20.00;9.25;;;;;;;5.20;100.00;100310.72;4974409;23;20946;-86
2023/01/27 11:05:25;;;;;;;20.80;8.95;;;;;;;5.18;100.00;100302.16;4865735;29;20092;-85
2023/01/27 11:12:02;;;;;;;19.00;9.48;;;;;;;5.28;100.00;100296.91;5356750;23;20059;-84
2023/01/27 11:15:01;;;;;;;20.40;8.73;;;;;;;5.27;100.00;100305.75;4867652;29;20507;-84
2023/01/27 11:22:47;;;;;;;19.40;9.05;;;;;;;5.29;100.00;100293.34;4883222;29;20047;-83
2023/01/27 11:39:56;;;;;;;14.52;8.15;;;;;;;5.33;100.00;100293.91;4959680;29;20103;-83
2023/01/27 11:50:26;;;;;;;20.40;8.40;;;;;;;5.24;100.00;100278.94;4922281;29;20051;-82
2023/01/27 12:05:51;;;;;;;14.93;7.45;;;;;;;5.60;100.00;100281.78;5243523;23;20050;-85
2023/01/27 12:11:27;;;;;;;26.83;10.35;;;;;;;5.50;100.00;100273.03;4186839;26;20044;-84
2023/01/27 12:14:04;;;;;;;25.92;10.13;;;;;;;5.40;100.00;100281.88;4950923;29;20093;-87
2023/01/27 12:16:48;;;;;;;40.40;14.93;;;;;;;5.36;100.00;100269.97;4956664;29;20444;-89
2023/01/27 12:19:27;;;;;;;17.75;8.20;;;;;;;5.23;100.00;100262.34;4953445;29;20123;-82
2023/01/27 12:22:08;;;;;;;25.88;9.43;;;;;;;5.31;100.00;100259.84;4949129;29;20067;-84
2023/01/27 12:24:39;;;;;;;15.80;6.55;;;;;;;5.38;100.00;100249.63;4924876;29;20031;-85
2023/01/27 12:28:10;;;;;;;33.17;11.45;;;;;;;5.53;100.00;100251.75;4956569;29;20053;-85
2023/01/27 12:30:42;;;;;;;22.60;9.27;;;;;;;5.67;100.00;100251.34;4957811;29;20417;-85
2023/01/27 12:33:19;;;;;;;20.42;8.32;;;;;;;5.61;100.00;100257.16;4956364;29;20047;-83
2023/01/27 12:35:56;;;;;;;42.20;14.05;;;;;;;5.61;100.00;100256.31;4955959;29;20090;-83
2023/01/27 12:38:24;;;;;;;26.85;10.27;;;;;;;5.32;100.00;100240.50;4956409;29;20047;-81
2023/01/27 12:41:21;;;;;;;16.65;8.02;;;;;;;5.42;100.00;100238.72;4953019;29;20024;-88
2023/01/27 12:43:50;;;;;;;15.73;7.40;;;;;;;5.42;100.00;100245.78;4954554;29;20051;-80
2023/01/27 12:46:20;;;;;;;14.82;6.80;;;;;;;5.23;100.00;100249.22;4952263;29;20138;-87
2023/01/27 12:48:50;;;;;;;11.15;6.72;;;;;;;5.32;100.00;100250.19;4955315;29;20047;-88
2023/01/27 12:51:47;;;;;;;13.05;7.07;;;;;;;5.22;100.00;100235.25;4957045;29;20039;-87
2023/01/27 12:54:20;;;;;;;12.73;5.50;;;;;;;5.30;100.00;100237.19;4955264;29;20035;-89
2023/01/27 12:57:14;;;;;;;14.63;6.72;;;;;;;5.39;100.00;100220.63;4953905;29;20040;-89
2023/01/27 12:59:52;;;;;;;18.33;6.57;;;;;;;5.39;100.00;100236.38;4953690;29;20040;-88
2023/01/27 13:02:32;;;;;;;15.50;6.75;;;;;;;5.41;100.00;100223.94;4953098;29;20038;-88
2023/01/27 13:05:06;;;;;;;11.63;6.70;;;;;;;5.42;100.00;100220.34;4955094;29;20031;-87
2023/01/27 13:07:47;;;;;;;16.58;6.50;;;;;;;5.49;100.00;100216.19;4952910;29;20107;-87
2023/01/27 13:10:24;;;;;;;14.82;6.78;;;;;;;5.53;100.00;100217.59;4954899;29;20040;-86
2023/01/27 13:12:53;;;;;;;12.15;6.03;;;;;;;5.54;97.63;100228.91;4938670;29;20145;-86
2023/01/27 13:15:24;;;;;;;12.27;6.32;;;;;;;5.38;99.24;100224.19;4954665;29;20036;-84
2023/01/27 13:17:54;;;;;;;14.18;5.32;;;;;;;5.43;97.66;100227.25;4953734;29;20039;-87
2023/01/27 13:20:21;;;;;;;12.90;6.60;;;;;;;5.39;100.00;100227.66;4934994;29;20056;-85
2023/01/27 13:23:08;;;;;;;18.40;7.10;;;;;;;5.35;100.00;100219.22;4936871;29;20036;-85
2023/01/27 13:25:41;;;;;;;16.90;6.93;;;;;;;5.39;100.00;100217.16;4927705;29;20104;-85
2023/01/27 13:28:35;;;;;;;14.63;6.88;;;;;;;5.25;100.00;100223.63;4954362;29;20039;-89
2023/01/27 13:31:05;;;;;;;18.88;7.28;;;;;;;5.36;100.00;100220.06;4953811;29;20040;-88
2023/01/27 13:33:41;;;;;;;16.65;6.90;;;;;;;5.49;100.00;100216.19;4954437;29;20076;-84
2023/01/27 13:36:31;;;;;;;11.95;6.60;;;;;;;5.61;100.00;100209.84;4954996;29;20032;-86
2023/01/27 13:39:03;;;;;;;19.35;6.30;;;;;;;5.89;99.58;100210.84;4954351;29;20091;-86
2023/01/27 13:41:38;;;;;;;;;;;;;;;5.68;99.86;100221.47;4955760;29;20039;-86
2023/01/27 13:44:34;;;;;;;14.10;6.40;;;;;;;5.87;93.04;100223.28;4950961;29;19941;-87
2023/01/27 13:47:03;;;;;;;11.43;5.57;;;;;;;5.59;90.55;100222.28;4940770;29;20053;-84
2023/01/27 13:49:36;;;;;;;13.45;5.72;;;;;;;5.43;91.58;100223.81;4934280;29;20032;-83
2023/01/27 13:52:04;;;;;;;12.00;5.68;;;;;;;5.49;92.46;100224.09;4934725;29;20032;-90
2023/01/27 13:54:31;;;;;;;14.88;5.97;;;;;;;5.48;92.05;100222.41;4934652;29;20028;-83
2023/01/27 13:57:06;;;;;;;13.07;5.88;;;;;;;5.43;93.49;100216.75;4935153;29;20080;-88
2023/01/27 13:59:42;;;;;;;12.80;5.95;;;;;;;5.48;95.10;100214.53;4935595;29;20028;-83
2023/01/27 14:02:46;;;;;;;17.00;5.50;;;;;;;5.33;91.59;100221.16;4935274;29;20036;-86
2023/01/27 14:05:28;;;;;;;10.73;6.07;;;;;;;5.51;89.23;100214.25;4930993;29;20036;-86
2023/01/27 14:08:08;;;;;;;9.70;5.70;;;;;;;5.48;89.04;100224.22;4932483;29;20142;-84
2023/01/27 14:11:01;;;;;;;13.00;6.47;;;;;;;5.46;91.04;100210.38;4950154;29;20055;-84
2023/01/27 14:13:47;;;;;;;12.43;5.82;;;;;;;5.60;87.70;100217.88;4951785;29;20139;-82
2023/01/27 14:16:12;;;;;;;13.63;6.78;;;;;;;5.44;87.69;100223.66;4950767;29;20413;-84
2023/01/27 14:18:51;;;;;;;14.52;6.43;;;;;;;5.61;80.55;100224.78;4950395;29;20036;-84
2023/01/27 14:21:39;;;;;;;18.15;7.78;;;;;;;5.60;80.44;100217.88;4951896;29;20039;-83
2023/01/27 14:24:19;;;;;;;15.93;7.28;;;;;;;5.77;80.96;100218.97;4949618;29;20493;-83
2023/01/27 14:27:04;;;;;;;18.70;7.60;;;;;;;5.62;80.96;100221.19;4947926;29;20044;-88
2023/01/27 14:29:40;;;;;;;17.33;7.40;;;;;;;5.67;81.98;100218.97;4950884;29;20032;-84
2023/01/27 14:32:28;;;;;;;18.73;8.13;;;;;;;5.67;80.05;100230.31;4952352;29;20027;-86
2023/01/27 14:34:59;;;;;;;15.13;6.85;;;;;;;5.60;78.91;100223.13;4935628;29;20036;-86
2023/01/27 14:37:44;;;;;;;16.27;7.97;;;;;;;5.57;78.16;100224.22;4935503;29;20064;-83
2023/01/27 14:40:30;;;;;;;14.45;7.28;;;;;;;5.63;75.63;100233.38;4954377;29;20043;-83
2023/01/27 14:43:29;;;;;;;13.38;7.22;;;;;;;5.64;74.24;100225.31;4955527;29;20048;-85
2023/01/27 14:45:58;;;;;;;15.27;7.75;;;;;;;5.54;75.02;100226.28;4915543;29;20052;-84
2023/01/27 14:48:51;;;;;;;12.05;6.78;;;;;;;5.43;74.77;100231.69;4893086;29;20048;-83
2023/01/27 14:51:30;;;;;;;17.35;8.43;;;;;;;5.46;75.79;100231.41;4894979;29;20057;-86
2023/01/27 14:54:32;;;;;;;17.98;8.75;;;;;;;5.60;75.38;100239.72;4894557;29;20066;-86
2023/01/27 14:57:31;;;;;;;13.23;7.28;;;;;;;5.67;73.96;100237.34;4919330;29;20123;-86
2023/01/27 15:00:41;;;;;;;23.23;9.05;;;;;;;5.64;75.48;100241.09;4937888;29;20044;-83
2023/01/27 15:03:25;;;;;;;14.60;7.72;;;;;;;5.83;75.41;100239.47;4942141;29;20051;-85
2023/01/27 15:06:17;;;;;;;16.10;7.22;;;;;;;5.77;76.17;100240.03;4955632;29;20033;-84
2023/01/27 15:09:04;;;;;;;13.38;7.25;;;;;;;5.87;76.49;100246.13;4951647;29;20044;-86
2023/01/27 15:12:05;;;;;;;12.82;6.68;;;;;;;5.65;77.67;100242.78;4955164;29;20588;-85
2023/01/27 15:14:30;;;;;;;18.80;7.95;;;;;;;5.67;76.31;100232.09;4952261;29;20040;-83
2023/01/27 15:17:13;;;;;;;15.57;6.00;;;;;;;5.66;74.82;100235.72;4953423;29;20044;-86
2023/01/27 15:20:05;;;;;;;13.32;5.80;;;;;;;5.59;76.42;100234.59;4946786;29;20036;-87
2023/01/27 15:22:52;;;;;;;11.38;5.20;;;;;;;5.51;75.01;100232.66;4942143;29;20058;-84
2023/01/27 15:25:36;;;;;;;20.05;6.32;;;;;;;5.56;76.61;100235.72;4948967;29;20091;-87
2023/01/27 15:28:04;;;;;;;13.02;5.40;;;;;;;5.38;78.48;100234.72;4947527;29;20070;-86
2023/01/27 15:30:33;;;;;;;13.77;6.68;;;;;;;5.37;78.86;100227.78;4948036;29;20462;-85
2023/01/27 15:32:59;;;;;;;18.95;7.47;;;;;;;5.51;79.96;100234.44;4948519;29;20039;-87
2023/01/27 15:35:30;;;;;;;23.95;9.13;;;;;;;5.51;80.25;100235.28;4937080;29;20072;-88
2023/01/27 15:38:15;;;;;;;24.88;8.65;;;;;;;5.44;81.40;100234.16;4955068;29;20059;-86
2023/01/27 15:41:16;;;;;;;14.27;6.45;;;;;;;5.65;79.35;100237.50;4956969;29;20054;-88
2023/01/27 15:44:26;;;;;;;16.40;7.05;;;;;;;5.38;80.94;100239.97;5015948;23;20048;-89
2023/01/27 15:46:54;;;;;;;13.02;6.20;;;;;;;5.56;81.17;100240.97;4904604;29;20031;-88
2023/01/27 15:49:25;;;;;;;13.48;6.03;;;;;;;5.74;80.72;100247.19;4910541;29;20094;-88
2023/01/27 15:51:54;;;;;;;22.38;8.63;;;;;;;5.69;81.28;100238.91;4914004;29;20044;-88
2023/01/27 15:54:30;;;;;;;15.13;8.02;;;;;;;5.57;81.89;100239.16;4912397;29;20035;-89
2023/01/27 15:56:59;;;;;;;24.33;7.55;;;;;;;5.45;80.82;100245.50;4904629;29;20056;-88
2023/01/27 15:59:29;;;;;;;19.52;8.15;;;;;;;5.43;82.29;100243.03;4907615;29;20123;-88
2023/01/27 16:02:14;;;;;;;24.42;8.98;;;;;;;5.21;85.10;100243.25;4908134;29;20078;-89
2023/01/27 16:04:40;;;;;;;16.52;8.82;;;;;;;5.12;85.59;100250.16;4894014;29;20131;-88
2023/01/27 16:07:21;;;;;;;18.90;8.80;;;;;;;5.31;84.61;100251.16;4904444;29;20037;-89
2023/01/27 16:09:51;;;;;;;20.23;9.73;;;;;;;5.47;83.73;100251.47;4908565;29;20036;-88
2023/01/27 16:12:22;;;;;;;27.55;11.18;;;;;;;5.35;85.82;100261.25;4908269;29;20199;-87
2023/01/27 16:15:08;;;;;;;37.63;18.67;;;;;;;5.52;85.05;100255.34;4922020;29;20048;-89
2023/01/27 16:17:57;;;;;;;38.45;14.68;;;;;;;5.16;88.66;100258.59;4909395;29;20122;-87
2023/01/27 16:20:28;;;;;;;31.48;13.93;;;;;;;4.89;92.08;100264.44;4923127;29;20044;-89
2023/01/27 16:23:09;;;;;;;32.92;13.23;;;;;;;4.82;94.15;100258.06;4922453;29;20039;-88
2023/01/27 16:25:47;;;;;;;23.87;10.00;;;;;;;4.91;96.78;100257.25;4919858;29;20042;-88
2023/01/27 16:28:19;;;;;;;23.85;10.88;;;;;;;4.68;94.61;100251.34;4905781;29;20048;-90
2023/01/27 16:31:11;;;;;;;42.80;14.60;;;;;;;4.61;100.00;100260.72;4916917;29;20474;-86
2023/01/27 16:36:35;;;;;;;27.48;11.38;;;;;;;4.71;100.00;100265.19;4898747;29;19973;-84
2023/01/27 16:39:23;;;;;;;29.23;12.38;;;;;;;4.81;100.00;100266.03;4884650;29;20053;-86
2023/01/27 16:42:23;;;;;;;20.88;10.38;;;;;;;4.71;100.00;100280.94;4908374;29;20186;-81
2023/01/27 16:44:50;;;;;;;23.35;10.15;;;;;;;4.91;99.71;100273.00;4849936;29;20401;-85
2023/01/27 16:47:31;;;;;;;28.75;9.90;;;;;;;4.72;97.15;100282.59;4849462;29;20057;-84
2023/01/27 18:34:00;;;;;;;27.30;10.70;;;;;;;2.47;100.00;100363.59;4962610;28;20103;-82
2023/01/27 18:37:29;;;;;;;;;;;;;;;2.21;100.00;100372.56;5239728;23;20066;-82
2023/01/27 18:51:03;;;;;;;28.27;12.93;;;;;;;2.56;100.00;100389.06;5152121;23;20056;-87
2023/01/27 18:54:38;;;;;;;31.83;15.05;;;;;;;2.32;100.00;100388.25;4943345;29;20035;-85
2023/01/27 18:57:51;;;;;;;43.95;14.50;;;;;;;2.31;100.00;100389.22;4946226;28;20077;-86
2023/01/27 19:06:15;;;;;;;30.50;12.27;;;;;;;2.60;100.00;100395.75;5086847;23;20056;-86
2023/01/27 19:08:47;;;;;;;38.08;12.95;;;;;;;2.68;100.00;100402.19;4930807;29;20052;-85
2023/01/27 19:11:25;;;;;;;27.88;12.60;;;;;;;2.66;100.00;100401.47;4947897;29;20054;-87
2023/01/27 19:13:51;;;;;;;31.30;13.95;;;;;;;2.77;100.00;100401.50;4928583;29;20055;-86
2023/01/27 19:16:25;;;;;;;40.40;13.57;;;;;;;2.42;100.00;100401.53;4944715;29;20486;-85
2023/01/27 19:21:33;;;;;;;31.48;14.93;;;;;;;2.24;100.00;100393.25;4947844;23;20122;-87
2023/01/27 19:23:58;;;;;;;36.45;15.75;;;;;;;2.13;100.00;100395.78;4913676;29;20504;-88
2023/01/27 19:26:24;;;;;;;39.17;17.35;;;;;;;2.43;100.00;100401.38;4945440;29;20038;-86
2023/01/27 19:28:58;;;;;;;38.85;18.42;;;;;;;2.27;100.00;100403.47;4947983;29;20401;-87
2023/01/27 19:31:24;;;;;;;48.75;20.55;;;;;;;1.96;100.00;100398.78;4949956;29;20063;-87
2023/01/27 19:33:50;;;;;;;50.90;22.00;;;;;;;1.96;100.00;100409.25;4931265;29;20056;-86
2023/01/27 19:36:20;;;;;;;56.28;23.55;;;;;;;2.04;100.00;100399.09;4946812;29;20677;-84
2023/01/27 19:39:00;;;;;;;54.35;23.23;;;;;;;2.13;100.00;100411.47;4930436;29;20067;-87
2023/01/27 19:41:28;;;;;;;56.60;24.70;;;;;;;2.30;100.00;100408.47;4945941;29;20043;-87
2023/01/27 19:43:54;;;;;;;54.15;25.25;;;;;;;2.34;100.00;100411.69;4929125;29;20138;-86
2023/01/27 19:46:24;;;;;;;44.00;22.50;;;;;;;2.44;100.00;100416.16;4929157;29;20048;-85
2023/01/27 19:48:50;;;;;;;44.45;19.73;;;;;;;2.39;100.00;100412.19;4928065;29;20058;-84
2023/01/27 19:51:17;;;;;;;42.83;19.73;;;;;;;2.38;100.00;100408.75;4942620;29;20039;-86
2023/01/27 19:53:44;;;;;;;50.65;21.67;;;;;;;2.25;100.00;100415.84;4941478;29;20044;-87
2023/01/27 19:56:15;;;;;;;41.65;20.05;;;;;;;2.26;100.00;100425.31;4924635;29;20099;-86
2023/01/27 19:58:44;;;;;;;38.83;19.40;;;;;;;2.42;100.00;100420.63;4925087;29;20059;-84
2023/01/27 20:01:13;;;;;;;;;;;;;;;2.37;100.00;100425.38;4947378;29;20122;-84
2023/01/27 20:03:39;;;;;;;33.20;16.90;;;;;;;2.16;100.00;100421.72;4941852;29;20352;-84
2023/01/27 20:06:30;;;;;;;42.38;17.75;;;;;;;1.95;100.00;100428.50;4943030;29;20039;-83
2023/01/27 20:09:02;;;;;;;30.48;16.58;;;;;;;2.26;100.00;100425.31;4940323;29;20056;-85
2023/01/27 20:11:42;;;;;;;39.15;18.23;;;;;;;2.05;100.00;100422.47;4945368;29;20039;-85
2023/01/27 20:14:13;;;;;;;43.67;17.30;;;;;;;2.12;100.00;100440.34;4929640;29;20070;-85
2023/01/27 20:16:41;;;;;;;38.35;17.17;;;;;;;2.10;100.00;100437.84;4945950;29;20032;-84
2023/01/27 20:19:13;;;;;;;34.83;17.20;;;;;;;1.68;100.00;100435.66;4937512;29;20044;-87
2023/01/27 20:21:44;;;;;;;33.25;17.73;;;;;;;1.59;100.00;100442.38;4912270;29;20050;-86
2023/01/27 20:24:14;;;;;;;35.17;17.20;;;;;;;1.51;100.00;100440.31;4926959;29;20051;-82
2023/01/27 20:26:43;;;;;;;30.67;15.93;;;;;;;1.58;100.00;100453.75;4923954;29;20040;-83
2023/01/27 20:29:12;;;;;;;33.38;14.75;;;;;;;1.23;100.00;100443.13;4925765;29;20055;-85
2023/01/27 20:31:39;;;;;;;32.53;15.27;;;;;;;1.25;100.00;100443.88;4928910;29;20040;-85
2023/01/27 20:34:05;;;;;;;29.95;13.88;;;;;;;1.11;100.00;100443.13;4925328;29;20091;-86
2023/01/27 20:36:30;;;;;;;25.65;13.27;;;;;;;1.41;100.00;100448.88;4941279;29;20046;-84
2023/01/27 20:38:56;;;;;;;26.58;13.00;;;;;;;1.34;100.00;100448.47;4925864;29;20500;-86
2023/01/27 20:41:23;;;;;;;25.58;12.57;;;;;;;1.68;100.00;100452.19;4932026;29;20043;-84
2023/01/27 20:43:57;;;;;;;20.55;11.30;;;;;;;1.61;100.00;100455.31;4947409;29;20039;-84
2023/01/27 20:46:23;;;;;;;27.30;11.75;;;;;;;1.41;100.00;100459.31;4946896;29;20035;-84
2023/01/27 20:48:52;;;;;;;22.75;10.63;;;;;;;1.33;100.00;100459.84;4949566;29;20429;-89
2023/01/27 20:51:18;;;;;;;22.65;11.88;;;;;;;1.36;100.00;100464.84;4934176;29;20051;-86
2023/01/27 20:53:44;;;;;;;23.40;12.32;;;;;;;1.68;100.00;100467.84;4933107;29;20500;-86
2023/01/27 20:56:15;;;;;;;23.58;11.57;;;;;;;1.88;100.00;100463.84;4947384;29;20047;-89
2023/01/27 20:58:44;;;;;;;25.27;12.15;;;;;;;1.92;100.00;100467.91;4947665;29;20036;-84
2023/01/27 21:01:22;;;;;;;30.88;12.35;;;;;;;1.76;100.00;100459.47;4927006;29;20111;-85
2023/01/27 21:03:51;;;;;;;32.63;13.40;;;;;;;1.57;100.00;100465.16;4914791;29;20408;-89
2023/01/27 21:06:20;;;;;;;29.52;14.93;;;;;;;1.35;100.00;100465.81;4950435;29;20047;-85
2023/01/27 21:08:53;;;;;;;30.45;15.80;;;;;;;1.02;100.00;100457.66;4917807;29;20043;-84
2023/01/27 21:11:20;;;;;;;29.50;15.07;;;;;;;0.98;100.00;100461.41;4950215;29;20019;-86
2023/01/27 21:13:48;;;;;;;35.72;15.05;;;;;;;1.31;100.00;100464.34;4919871;29;20035;-86
2023/01/27 21:16:16;;;;;;;36.63;14.35;;;;;;;1.54;100.00;100468.81;4957795;29;20044;-85
2023/01/27 21:18:42;;;;;;;33.55;15.43;;;;;;;1.40;100.00;100463.69;4942701;29;20062;-88
2023/01/27 21:21:21;;;;;;;35.20;15.90;;;;;;;1.26;100.00;100461.19;4927441;29;20067;-87
2023/01/27 21:23:47;;;;;;;32.15;15.00;;;;;;;1.33;100.00;100469.44;4933256;28;20024;-87
2023/01/27 21:26:13;;;;;;;31.55;14.75;;;;;;;1.30;100.00;100467.88;4924261;29;20402;-86
2023/01/27 21:28:40;;;;;;;28.23;14.30;;;;;;;1.45;100.00;100469.47;4921861;29;20067;-87
2023/01/27 21:31:10;;;;;;;28.10;15.00;;;;;;;1.46;100.00;100467.66;4906378;29;20052;-86
2023/01/27 21:33:41;;;;;;;32.25;16.20;;;;;;;1.36;100.00;100471.88;4907466;29;20051;-86